sensor_id;sensor_type;location;lat;lon;timestamp;temperature;humidity
63202;DHT22;49296;48.188;11.566;2023-06-22T00:00:46;24.54;60.62
63202;DHT22;49296;48.188;11.566;2023-06-22T00:03:13;24.43;60.88
63202;DHT22;49296;48.188;11.566;2023-06-22T00:05:39;24.43;60.74
63202;DHT22;49296;48.188;11.566;2023-06-22T00:08:06;24.41;60.92
63202;DHT22;49296;48.188;11.566;2023-06-22T00:10:33;24.49;60.89
63202;DHT22;49296;48.188;11.566;2023-06-22T00:13:00;24.43;60.83
63202;DHT22;49296;48.188;11.566;2023-06-22T00:15:27;24.50;60.69
63202;DHT22;49296;48.188;11.566;2023-06-22T00:17:56;24.56;60.74
63202;DHT22;49296;48.188;11.566;2023-06-22T00:20:24;24.53;61.09
63202;DHT22;49296;48.188;11.566;2023-06-22T00:22:53;24.34;60.75
63202;DHT22;49296;48.188;11.566;2023-06-22T00:25:20;24.50;60.35
63202;DHT22;49296;48.188;11.566;2023-06-22T00:27:47;24.29;60.66
63202;DHT22;49296;48.188;11.566;2023-06-22T00:30:14;24.27;60.67
63202;DHT22;49296;48.188;11.566;2023-06-22T00:32:42;24.39;60.37
63202;DHT22;49296;48.188;11.566;2023-06-22T00:35:11;24.40;60.27
63202;DHT22;49296;48.188;11.566;2023-06-22T00:37:38;24.47;60.02
63202;DHT22;49296;48.188;11.566;2023-06-22T00:40:08;24.43;59.86
63202;DHT22;49296;48.188;11.566;2023-06-22T00:42:37;24.56;59.51
63202;DHT22;49296;48.188;11.566;2023-06-22T00:45:05;24.54;59.55
63202;DHT22;49296;48.188;11.566;2023-06-22T00:47:32;24.60;59.15
63202;DHT22;49296;48.188;11.566;2023-06-22T00:50:00;24.65;59.03
63202;DHT22;49296;48.188;11.566;2023-06-22T00:52:29;24.56;59.20
63202;DHT22;49296;48.188;11.566;2023-06-22T00:54:59;24.57;59.19
63202;DHT22;49296;48.188;11.566;2023-06-22T00:57:28;24.53;59.31
63202;DHT22;49296;48.188;11.566;2023-06-22T00:59:55;24.54;59.38
63202;DHT22;49296;48.188;11.566;2023-06-22T01:02:21;24.46;59.57
63202;DHT22;49296;48.188;11.566;2023-06-22T01:04:48;24.32;60.00
63202;DHT22;49296;48.188;11.566;2023-06-22T01:07:23;23.82;61.25
63202;DHT22;49296;48.188;11.566;2023-06-22T01:09:59;23.71;61.59
63202;DHT22;49296;48.188;11.566;2023-06-22T01:12:30;23.60;61.92
63202;DHT22;49296;48.188;11.566;2023-06-22T01:15:04;23.65;61.71
63202;DHT22;49296;48.188;11.566;2023-06-22T01:17:32;23.82;61.40
63202;DHT22;49296;48.188;11.566;2023-06-22T01:20:00;23.85;61.16
63202;DHT22;49296;48.188;11.566;2023-06-22T01:22:33;23.94;60.99
63202;DHT22;49296;48.188;11.566;2023-06-22T01:25:11;24.02;60.67
63202;DHT22;49296;48.188;11.566;2023-06-22T01:27:49;23.96;60.80
63202;DHT22;49296;48.188;11.566;2023-06-22T01:30:20;23.75;61.27
63202;DHT22;49296;48.188;11.566;2023-06-22T01:32:49;23.81;61.30
63202;DHT22;49296;48.188;11.566;2023-06-22T01:35:17;23.67;61.37
63202;DHT22;49296;48.188;11.566;2023-06-22T01:37:44;23.67;61.58
63202;DHT22;49296;48.188;11.566;2023-06-22T01:40:13;23.55;61.75
63202;DHT22;49296;48.188;11.566;2023-06-22T01:42:40;23.71;61.41
63202;DHT22;49296;48.188;11.566;2023-06-22T01:45:09;23.49;61.86
63202;DHT22;49296;48.188;11.566;2023-06-22T01:47:38;23.57;61.78
63202;DHT22;49296;48.188;11.566;2023-06-22T01:50:06;23.57;61.87
63202;DHT22;49296;48.188;11.566;2023-06-22T01:52:33;23.46;62.06
63202;DHT22;49296;48.188;11.566;2023-06-22T01:55:00;23.54;61.92
63202;DHT22;49296;48.188;11.566;2023-06-22T01:57:27;23.60;61.88
63202;DHT22;49296;48.188;11.566;2023-06-22T02:00:00;23.40;62.10
63202;DHT22;49296;48.188;11.566;2023-06-22T02:02:32;23.39;62.15
63202;DHT22;49296;48.188;11.566;2023-06-22T02:05:04;23.37;62.40
63202;DHT22;49296;48.188;11.566;2023-06-22T02:07:34;23.40;62.36
63202;DHT22;49296;48.188;11.566;2023-06-22T02:10:03;23.23;62.54
63202;DHT22;49296;48.188;11.566;2023-06-22T02:12:32;23.29;62.39
63202;DHT22;49296;48.188;11.566;2023-06-22T02:15:00;23.15;62.82
63202;DHT22;49296;48.188;11.566;2023-06-22T02:17:27;23.20;62.58
63202;DHT22;49296;48.188;11.566;2023-06-22T02:19:54;23.13;62.73
63202;DHT22;49296;48.188;11.566;2023-06-22T02:22:22;23.26;62.39
63202;DHT22;49296;48.188;11.566;2023-06-22T02:24:50;23.30;62.53
63202;DHT22;49296;48.188;11.566;2023-06-22T02:27:17;23.31;62.27
63202;DHT22;49296;48.188;11.566;2023-06-22T02:29:44;23.36;62.35
63202;DHT22;49296;48.188;11.566;2023-06-22T02:32:11;23.31;62.51
63202;DHT22;49296;48.188;11.566;2023-06-22T02:34:37;23.29;62.86
63202;DHT22;49296;48.188;11.566;2023-06-22T02:37:04;23.30;63.02
63202;DHT22;49296;48.188;11.566;2023-06-22T02:39:32;23.34;63.08
63202;DHT22;49296;48.188;11.566;2023-06-22T02:42:00;23.29;63.07
63202;DHT22;49296;48.188;11.566;2023-06-22T02:44:26;23.24;63.18
63202;DHT22;49296;48.188;11.566;2023-06-22T02:46:53;23.24;63.01
63202;DHT22;49296;48.188;11.566;2023-06-22T02:49:20;23.20;63.08
63202;DHT22;49296;48.188;11.566;2023-06-22T02:51:48;23.09;63.30
63202;DHT22;49296;48.188;11.566;2023-06-22T02:54:15;23.06;63.37
63202;DHT22;49296;48.188;11.566;2023-06-22T02:56:43;23.02;63.54
63202;DHT22;49296;48.188;11.566;2023-06-22T02:59:10;22.92;63.84
63202;DHT22;49296;48.188;11.566;2023-06-22T03:01:37;22.91;63.91
63202;DHT22;49296;48.188;11.566;2023-06-22T03:04:05;22.92;63.94
63202;DHT22;49296;48.188;11.566;2023-06-22T03:06:33;22.85;64.22
63202;DHT22;49296;48.188;11.566;2023-06-22T03:09:01;22.91;64.31
63202;DHT22;49296;48.188;11.566;2023-06-22T03:11:29;22.87;64.30
63202;DHT22;49296;48.188;11.566;2023-06-22T03:13:57;22.90;64.10
63202;DHT22;49296;48.188;11.566;2023-06-22T03:16:24;22.85;64.37
63202;DHT22;49296;48.188;11.566;2023-06-22T03:18:51;22.60;64.88
63202;DHT22;49296;48.188;11.566;2023-06-22T03:21:18;22.56;65.15
63202;DHT22;49296;48.188;11.566;2023-06-22T03:23:45;22.47;65.43
63202;DHT22;49296;48.188;11.566;2023-06-22T03:26:12;22.36;65.75
63202;DHT22;49296;48.188;11.566;2023-06-22T03:28:39;22.37;65.70
63202;DHT22;49296;48.188;11.566;2023-06-22T03:31:08;22.43;65.52
63202;DHT22;49296;48.188;11.566;2023-06-22T03:33:34;22.08;66.57
63202;DHT22;49296;48.188;11.566;2023-06-22T03:36:02;22.13;66.43
63202;DHT22;49296;48.188;11.566;2023-06-22T03:38:29;22.22;66.39
63202;DHT22;49296;48.188;11.566;2023-06-22T03:40:56;22.32;66.03
63202;DHT22;49296;48.188;11.566;2023-06-22T03:43:23;22.30;65.94
63202;DHT22;49296;48.188;11.566;2023-06-22T03:45:49;22.30;66.02
63202;DHT22;49296;48.188;11.566;2023-06-22T03:48:17;22.32;65.99
63202;DHT22;49296;48.188;11.566;2023-06-22T03:50:44;22.24;66.19
63202;DHT22;49296;48.188;11.566;2023-06-22T03:53:11;22.23;66.38
63202;DHT22;49296;48.188;11.566;2023-06-22T03:55:48;22.22;66.55
63202;DHT22;49296;48.188;11.566;2023-06-22T03:58:15;22.35;66.20
63202;DHT22;49296;48.188;11.566;2023-06-22T04:00:44;22.37;66.21
63202;DHT22;49296;48.188;11.566;2023-06-22T04:03:11;22.26;66.58
63202;DHT22;49296;48.188;11.566;2023-06-22T04:05:39;22.32;66.30
63202;DHT22;49296;48.188;11.566;2023-06-22T04:08:06;22.43;66.09
63202;DHT22;49296;48.188;11.566;2023-06-22T04:10:33;22.48;65.89
63202;DHT22;49296;48.188;11.566;2023-06-22T04:13:00;22.61;65.69
63202;DHT22;49296;48.188;11.566;2023-06-22T04:15:27;22.58;65.76
63202;DHT22;49296;48.188;11.566;2023-06-22T04:17:54;22.64;65.66
63202;DHT22;49296;48.188;11.566;2023-06-22T04:20:21;22.71;65.55
63202;DHT22;49296;48.188;11.566;2023-06-22T04:22:49;22.75;65.60
63202;DHT22;49296;48.188;11.566;2023-06-22T04:25:17;22.75;65.66
63202;DHT22;49296;48.188;11.566;2023-06-22T04:27:44;22.68;65.88
63202;DHT22;49296;48.188;11.566;2023-06-22T04:30:11;22.74;65.84
63202;DHT22;49296;48.188;11.566;2023-06-22T04:32:41;22.78;65.78
63202;DHT22;49296;48.188;11.566;2023-06-22T04:35:08;22.56;66.29
63202;DHT22;49296;48.188;11.566;2023-06-22T04:37:35;22.61;66.22
63202;DHT22;49296;48.188;11.566;2023-06-22T04:40:04;22.63;66.20
63202;DHT22;49296;48.188;11.566;2023-06-22T04:42:33;22.57;66.45
63202;DHT22;49296;48.188;11.566;2023-06-22T04:45:01;22.63;66.32
63202;DHT22;49296;48.188;11.566;2023-06-22T04:47:27;22.64;66.26
63202;DHT22;49296;48.188;11.566;2023-06-22T04:49:54;22.69;66.09
63202;DHT22;49296;48.188;11.566;2023-06-22T04:52:21;22.53;66.37
63202;DHT22;49296;48.188;11.566;2023-06-22T04:54:48;22.61;66.39
63202;DHT22;49296;48.188;11.566;2023-06-22T04:57:17;22.67;66.39
63202;DHT22;49296;48.188;11.566;2023-06-22T04:59:44;22.71;66.15
63202;DHT22;49296;48.188;11.566;2023-06-22T05:02:11;22.76;66.17
63202;DHT22;49296;48.188;11.566;2023-06-22T05:04:37;22.65;66.41
63202;DHT22;49296;48.188;11.566;2023-06-22T05:07:05;22.79;65.89
63202;DHT22;49296;48.188;11.566;2023-06-22T05:09:32;22.84;65.67
63202;DHT22;49296;48.188;11.566;2023-06-22T05:11:59;22.84;65.59
63202;DHT22;49296;48.188;11.566;2023-06-22T05:14:29;22.81;65.58
63202;DHT22;49296;48.188;11.566;2023-06-22T05:16:56;22.95;65.43
63202;DHT22;49296;48.188;11.566;2023-06-22T05:19:24;22.96;65.33
63202;DHT22;49296;48.188;11.566;2023-06-22T05:21:56;23.05;65.13
63202;DHT22;49296;48.188;11.566;2023-06-22T05:24:23;23.03;65.21
63202;DHT22;49296;48.188;11.566;2023-06-22T05:26:50;23.09;65.00
63202;DHT22;49296;48.188;11.566;2023-06-22T05:29:17;23.12;64.91
63202;DHT22;49296;48.188;11.566;2023-06-22T05:31:45;23.23;64.41
63202;DHT22;49296;48.188;11.566;2023-06-22T05:34:12;23.34;64.18
63202;DHT22;49296;48.188;11.566;2023-06-22T05:36:38;23.39;64.48
63202;DHT22;49296;48.188;11.566;2023-06-22T05:39:11;23.46;64.50
63202;DHT22;49296;48.188;11.566;2023-06-22T05:41:39;23.37;64.42
63202;DHT22;49296;48.188;11.566;2023-06-22T05:44:05;23.60;63.96
63202;DHT22;49296;48.188;11.566;2023-06-22T05:46:32;23.61;63.57
63202;DHT22;49296;48.188;11.566;2023-06-22T05:49:00;23.67;63.41
63202;DHT22;49296;48.188;11.566;2023-06-22T05:51:27;23.75;62.89
63202;DHT22;49296;48.188;11.566;2023-06-22T05:53:54;23.89;62.66
63202;DHT22;49296;48.188;11.566;2023-06-22T05:56:21;23.78;62.65
63202;DHT22;49296;48.188;11.566;2023-06-22T05:58:47;23.89;62.53
63202;DHT22;49296;48.188;11.566;2023-06-22T06:01:14;23.92;62.62
63202;DHT22;49296;48.188;11.566;2023-06-22T06:03:42;23.98;62.50
63202;DHT22;49296;48.188;11.566;2023-06-22T06:06:11;24.09;62.28
63202;DHT22;49296;48.188;11.566;2023-06-22T06:08:38;24.16;62.06
63202;DHT22;49296;48.188;11.566;2023-06-22T06:11:05;24.13;62.17
63202;DHT22;49296;48.188;11.566;2023-06-22T06:13:31;24.17;62.24
63202;DHT22;49296;48.188;11.566;2023-06-22T06:15:58;24.23;61.86
63202;DHT22;49296;48.188;11.566;2023-06-22T06:18:25;24.30;61.61
63202;DHT22;49296;48.188;11.566;2023-06-22T06:20:52;24.15;61.88
63202;DHT22;49296;48.188;11.566;2023-06-22T06:23:20;24.13;62.18
63202;DHT22;49296;48.188;11.566;2023-06-22T06:25:47;24.08;62.21
63202;DHT22;49296;48.188;11.566;2023-06-22T06:28:14;24.13;62.33
63202;DHT22;49296;48.188;11.566;2023-06-22T06:30:41;24.16;62.28
63202;DHT22;49296;48.188;11.566;2023-06-22T06:33:07;24.15;62.37
63202;DHT22;49296;48.188;11.566;2023-06-22T06:35:34;24.16;62.30
63202;DHT22;49296;48.188;11.566;2023-06-22T06:38:03;24.24;62.17
63202;DHT22;49296;48.188;11.566;2023-06-22T06:40:31;24.26;62.21
63202;DHT22;49296;48.188;11.566;2023-06-22T06:42:58;24.20;62.60
63202;DHT22;49296;48.188;11.566;2023-06-22T06:45:25;24.26;62.68
63202;DHT22;49296;48.188;11.566;2023-06-22T06:47:54;24.36;62.52
63202;DHT22;49296;48.188;11.566;2023-06-22T06:50:21;24.34;62.38
63202;DHT22;49296;48.188;11.566;2023-06-22T06:52:48;24.46;62.39
63202;DHT22;49296;48.188;11.566;2023-06-22T06:55:15;24.47;62.47
63202;DHT22;49296;48.188;11.566;2023-06-22T06:57:44;24.49;62.59
63202;DHT22;49296;48.188;11.566;2023-06-22T07:00:14;24.47;62.65
63202;DHT22;49296;48.188;11.566;2023-06-22T07:02:42;24.54;62.66
63202;DHT22;49296;48.188;11.566;2023-06-22T07:05:09;24.64;62.65
63202;DHT22;49296;48.188;11.566;2023-06-22T07:07:37;24.64;62.59
63202;DHT22;49296;48.188;11.566;2023-06-22T07:10:05;24.67;62.42
63202;DHT22;49296;48.188;11.566;2023-06-22T07:12:32;24.78;62.25
63202;DHT22;49296;48.188;11.566;2023-06-22T07:15:03;24.71;62.42
63202;DHT22;49296;48.188;11.566;2023-06-22T07:17:30;24.78;62.32
63202;DHT22;49296;48.188;11.566;2023-06-22T07:19:57;24.89;62.21
63202;DHT22;49296;48.188;11.566;2023-06-22T07:22:25;24.93;62.18
63202;DHT22;49296;48.188;11.566;2023-06-22T07:24:52;24.92;61.97
63202;DHT22;49296;48.188;11.566;2023-06-22T07:27:18;25.03;61.98
63202;DHT22;49296;48.188;11.566;2023-06-22T07:29:46;25.10;61.95
63202;DHT22;49296;48.188;11.566;2023-06-22T07:32:14;25.13;61.63
63202;DHT22;49296;48.188;11.566;2023-06-22T07:34:41;25.15;62.01
63202;DHT22;49296;48.188;11.566;2023-06-22T07:37:09;25.16;61.95
63202;DHT22;49296;48.188;11.566;2023-06-22T07:39:35;25.15;62.19
63202;DHT22;49296;48.188;11.566;2023-06-22T07:42:03;25.13;62.32
63202;DHT22;49296;48.188;11.566;2023-06-22T07:44:30;25.24;62.50
63202;DHT22;49296;48.188;11.566;2023-06-22T07:46:58;25.30;62.33
63202;DHT22;49296;48.188;11.566;2023-06-22T07:49:27;25.36;62.30
63202;DHT22;49296;48.188;11.566;2023-06-22T07:51:54;25.40;62.06
63202;DHT22;49296;48.188;11.566;2023-06-22T07:54:21;25.47;62.24
63202;DHT22;49296;48.188;11.566;2023-06-22T07:56:48;25.43;61.34
63202;DHT22;49296;48.188;11.566;2023-06-22T07:59:15;25.47;61.47
63202;DHT22;49296;48.188;11.566;2023-06-22T08:01:42;25.57;61.72
63202;DHT22;49296;48.188;11.566;2023-06-22T08:04:09;25.65;61.24
63202;DHT22;49296;48.188;11.566;2023-06-22T08:06:37;25.72;61.29
63202;DHT22;49296;48.188;11.566;2023-06-22T08:09:04;25.75;61.84
63202;DHT22;49296;48.188;11.566;2023-06-22T08:11:31;25.80;61.60
63202;DHT22;49296;48.188;11.566;2023-06-22T08:13:57;25.85;62.40
63202;DHT22;49296;48.188;11.566;2023-06-22T08:16:24;25.89;62.87
63202;DHT22;49296;48.188;11.566;2023-06-22T08:18:51;25.92;61.26
63202;DHT22;49296;48.188;11.566;2023-06-22T08:21:18;25.86;60.98
63202;DHT22;49296;48.188;11.566;2023-06-22T08:23:46;25.95;60.78
63202;DHT22;49296;48.188;11.566;2023-06-22T08:26:14;25.96;61.22
63202;DHT22;49296;48.188;11.566;2023-06-22T08:28:40;26.10;60.80
63202;DHT22;49296;48.188;11.566;2023-06-22T08:31:07;26.26;60.91
63202;DHT22;49296;48.188;11.566;2023-06-22T08:33:35;26.32;59.86
63202;DHT22;49296;48.188;11.566;2023-06-22T08:36:02;26.43;59.37
63202;DHT22;49296;48.188;11.566;2023-06-22T08:38:31;26.51;59.24
63202;DHT22;49296;48.188;11.566;2023-06-22T08:40:59;26.60;58.93
63202;DHT22;49296;48.188;11.566;2023-06-22T08:43:26;26.61;58.64
63202;DHT22;49296;48.188;11.566;2023-06-22T08:45:53;26.68;58.46
63202;DHT22;49296;48.188;11.566;2023-06-22T08:48:20;26.84;58.94
63202;DHT22;49296;48.188;11.566;2023-06-22T08:50:47;26.89;58.61
63202;DHT22;49296;48.188;11.566;2023-06-22T08:53:14;26.94;58.20
63202;DHT22;49296;48.188;11.566;2023-06-22T08:55:41;26.99;58.22
63202;DHT22;49296;48.188;11.566;2023-06-22T08:58:09;27.00;57.82
63202;DHT22;49296;48.188;11.566;2023-06-22T09:00:35;27.06;57.31
63202;DHT22;49296;48.188;11.566;2023-06-22T09:03:03;27.12;57.27
63202;DHT22;49296;48.188;11.566;2023-06-22T09:05:30;27.17;57.48
63202;DHT22;49296;48.188;11.566;2023-06-22T09:07:56;27.24;57.35
63202;DHT22;49296;48.188;11.566;2023-06-22T09:10:24;27.27;57.14
63202;DHT22;49296;48.188;11.566;2023-06-22T09:12:51;27.30;57.04
63202;DHT22;49296;48.188;11.566;2023-06-22T09:15:19;27.33;57.47
63202;DHT22;49296;48.188;11.566;2023-06-22T09:17:46;27.31;56.87
63202;DHT22;49296;48.188;11.566;2023-06-22T09:20:13;27.30;57.33
63202;DHT22;49296;48.188;11.566;2023-06-22T09:22:40;27.27;57.15
63202;DHT22;49296;48.188;11.566;2023-06-22T09:25:07;27.24;56.88
63202;DHT22;49296;48.188;11.566;2023-06-22T09:27:34;27.27;57.24
63202;DHT22;49296;48.188;11.566;2023-06-22T09:30:01;27.29;57.64
63202;DHT22;49296;48.188;11.566;2023-06-22T09:32:30;27.27;57.32
63202;DHT22;49296;48.188;11.566;2023-06-22T09:34:57;27.34;57.17
63202;DHT22;49296;48.188;11.566;2023-06-22T09:37:24;27.33;57.58
63202;DHT22;49296;48.188;11.566;2023-06-22T09:39:51;27.40;57.28
63202;DHT22;49296;48.188;11.566;2023-06-22T09:42:18;27.39;57.04
63202;DHT22;49296;48.188;11.566;2023-06-22T09:44:46;27.39;56.58
63202;DHT22;49296;48.188;11.566;2023-06-22T09:47:13;27.40;56.59
63202;DHT22;49296;48.188;11.566;2023-06-22T09:49:41;27.47;56.43
63202;DHT22;49296;48.188;11.566;2023-06-22T09:52:08;27.46;56.18
63202;DHT22;49296;48.188;11.566;2023-06-22T09:54:36;27.48;56.35
63202;DHT22;49296;48.188;11.566;2023-06-22T09:57:03;27.51;56.15
63202;DHT22;49296;48.188;11.566;2023-06-22T09:59:30;27.57;56.19
63202;DHT22;49296;48.188;11.566;2023-06-22T10:01:57;27.64;56.14
63202;DHT22;49296;48.188;11.566;2023-06-22T10:04:24;27.62;56.06
63202;DHT22;49296;48.188;11.566;2023-06-22T10:06:52;27.69;56.07
63202;DHT22;49296;48.188;11.566;2023-06-22T10:09:19;27.74;55.96
63202;DHT22;49296;48.188;11.566;2023-06-22T10:11:46;27.75;55.97
63202;DHT22;49296;48.188;11.566;2023-06-22T10:14:13;27.80;55.91
63202;DHT22;49296;48.188;11.566;2023-06-22T10:16:40;27.91;55.84
63202;DHT22;49296;48.188;11.566;2023-06-22T10:19:07;28.03;55.52
63202;DHT22;49296;48.188;11.566;2023-06-22T10:21:34;28.13;55.33
63202;DHT22;49296;48.188;11.566;2023-06-22T10:24:03;28.20;55.71
63202;DHT22;49296;48.188;11.566;2023-06-22T10:26:31;28.27;55.78
63202;DHT22;49296;48.188;11.566;2023-06-22T10:28:58;28.24;55.32
63202;DHT22;49296;48.188;11.566;2023-06-22T10:31:25;28.27;55.59
63202;DHT22;49296;48.188;11.566;2023-06-22T10:33:53;28.40;55.74
63202;DHT22;49296;48.188;11.566;2023-06-22T10:36:20;28.47;55.75
63202;DHT22;49296;48.188;11.566;2023-06-22T10:38:47;28.45;55.41
63202;DHT22;49296;48.188;11.566;2023-06-22T10:41:15;28.51;55.31
63202;DHT22;49296;48.188;11.566;2023-06-22T10:43:42;28.53;55.17
63202;DHT22;49296;48.188;11.566;2023-06-22T10:46:09;28.51;55.05
63202;DHT22;49296;48.188;11.566;2023-06-22T10:48:36;28.43;55.11
63202;DHT22;49296;48.188;11.566;2023-06-22T10:51:03;28.54;54.97
63202;DHT22;49296;48.188;11.566;2023-06-22T10:53:30;28.68;54.98
63202;DHT22;49296;48.188;11.566;2023-06-22T10:55:56;28.69;54.69
63202;DHT22;49296;48.188;11.566;2023-06-22T10:58:25;29.05;53.93
63202;DHT22;49296;48.188;11.566;2023-06-22T11:00:52;29.16;54.19
63202;DHT22;49296;48.188;11.566;2023-06-22T11:03:18;29.22;53.70
63202;DHT22;49296;48.188;11.566;2023-06-22T11:05:45;29.12;53.59
63202;DHT22;49296;48.188;11.566;2023-06-22T11:08:13;29.00;53.64
63202;DHT22;49296;48.188;11.566;2023-06-22T11:10:40;29.03;53.84
63202;DHT22;49296;48.188;11.566;2023-06-22T11:13:06;29.05;53.71
63202;DHT22;49296;48.188;11.566;2023-06-22T11:15:36;29.03;53.64
63202;DHT22;49296;48.188;11.566;2023-06-22T11:18:04;29.00;53.68
63202;DHT22;49296;48.188;11.566;2023-06-22T11:20:33;29.05;53.69
63202;DHT22;49296;48.188;11.566;2023-06-22T11:23:04;29.14;54.15
63202;DHT22;49296;48.188;11.566;2023-06-22T11:25:31;29.33;53.78
63202;DHT22;49296;48.188;11.566;2023-06-22T11:28:01;29.27;53.36
63202;DHT22;49296;48.188;11.566;2023-06-22T11:30:27;29.29;53.29
63202;DHT22;49296;48.188;11.566;2023-06-22T11:32:56;29.44;52.89
63202;DHT22;49296;48.188;11.566;2023-06-22T11:35:23;29.69;53.10
63202;DHT22;49296;48.188;11.566;2023-06-22T11:37:49;29.84;52.17
63202;DHT22;49296;48.188;11.566;2023-06-22T11:40:16;29.95;51.80
63202;DHT22;49296;48.188;11.566;2023-06-22T11:42:43;30.08;51.60
63202;DHT22;49296;48.188;11.566;2023-06-22T11:45:10;30.26;51.61
63202;DHT22;49296;48.188;11.566;2023-06-22T11:47:37;30.45;51.10
63202;DHT22;49296;48.188;11.566;2023-06-22T11:50:07;30.57;50.94
63202;DHT22;49296;48.188;11.566;2023-06-22T11:52:34;30.72;51.18
63202;DHT22;49296;48.188;11.566;2023-06-22T11:55:02;30.85;51.01
63202;DHT22;49296;48.188;11.566;2023-06-22T11:57:32;30.89;50.33
63202;DHT22;49296;48.188;11.566;2023-06-22T11:59:59;31.07;50.07
63202;DHT22;49296;48.188;11.566;2023-06-22T12:02:26;31.20;49.87
63202;DHT22;49296;48.188;11.566;2023-06-22T12:04:52;31.30;49.90
63202;DHT22;49296;48.188;11.566;2023-06-22T12:07:23;31.47;50.22
63202;DHT22;49296;48.188;11.566;2023-06-22T12:09:49;31.55;49.51
63202;DHT22;49296;48.188;11.566;2023-06-22T12:12:16;31.40;49.60
63202;DHT22;49296;48.188;11.566;2023-06-22T12:14:43;31.52;49.77
63202;DHT22;49296;48.188;11.566;2023-06-22T12:17:10;31.81;48.79
63202;DHT22;49296;48.188;11.566;2023-06-22T12:19:37;32.03;48.90
63202;DHT22;49296;48.188;11.566;2023-06-22T12:22:04;32.14;48.76
63202;DHT22;49296;48.188;11.566;2023-06-22T12:24:32;32.29;48.69
63202;DHT22;49296;48.188;11.566;2023-06-22T12:26:59;32.45;48.15
63202;DHT22;49296;48.188;11.566;2023-06-22T12:29:27;32.40;48.48
63202;DHT22;49296;48.188;11.566;2023-06-22T12:31:54;32.36;48.38
63202;DHT22;49296;48.188;11.566;2023-06-22T12:34:21;32.37;48.72
63202;DHT22;49296;48.188;11.566;2023-06-22T12:36:49;32.36;49.16
63202;DHT22;49296;48.188;11.566;2023-06-22T12:39:16;32.44;48.56
63202;DHT22;49296;48.188;11.566;2023-06-22T12:41:44;32.67;48.30
63202;DHT22;49296;48.188;11.566;2023-06-22T12:44:11;32.85;47.95
63202;DHT22;49296;48.188;11.566;2023-06-22T12:46:38;32.71;48.23
63202;DHT22;49296;48.188;11.566;2023-06-22T12:49:05;32.71;47.78
63202;DHT22;49296;48.188;11.566;2023-06-22T12:51:31;32.57;48.37
63202;DHT22;49296;48.188;11.566;2023-06-22T12:53:59;32.53;48.48
63202;DHT22;49296;48.188;11.566;2023-06-22T12:56:26;32.50;48.59
63202;DHT22;49296;48.188;11.566;2023-06-22T12:58:54;32.45;48.36
63202;DHT22;49296;48.188;11.566;2023-06-22T13:01:21;32.37;48.32
63202;DHT22;49296;48.188;11.566;2023-06-22T13:03:48;32.36;48.33
63202;DHT22;49296;48.188;11.566;2023-06-22T13:06:15;32.36;48.41
63202;DHT22;49296;48.188;11.566;2023-06-22T13:08:41;32.60;47.92
63202;DHT22;49296;48.188;11.566;2023-06-22T13:11:08;32.71;48.10
63202;DHT22;49296;48.188;11.566;2023-06-22T13:13:35;32.92;48.74
63202;DHT22;49296;48.188;11.566;2023-06-22T13:16:03;33.35;47.17
63202;DHT22;49296;48.188;11.566;2023-06-22T13:18:30;33.64;46.86
63202;DHT22;49296;48.188;11.566;2023-06-22T13:20:59;33.72;46.87
63202;DHT22;49296;48.188;11.566;2023-06-22T13:23:26;33.96;45.75
63202;DHT22;49296;48.188;11.566;2023-06-22T13:25:52;34.20;45.17
63202;DHT22;49296;48.188;11.566;2023-06-22T13:28:19;34.32;45.16
63202;DHT22;49296;48.188;11.566;2023-06-22T13:30:46;34.32;44.98
63202;DHT22;49296;48.188;11.566;2023-06-22T13:33:15;34.41;44.79
63202;DHT22;49296;48.188;11.566;2023-06-22T13:35:42;34.50;44.88
63202;DHT22;49296;48.188;11.566;2023-06-22T13:38:09;34.61;43.95
63202;DHT22;49296;48.188;11.566;2023-06-22T13:40:36;34.40;44.61
63202;DHT22;49296;48.188;11.566;2023-06-22T13:43:04;34.50;44.36
63202;DHT22;49296;48.188;11.566;2023-06-22T13:45:31;34.88;43.86
63202;DHT22;49296;48.188;11.566;2023-06-22T13:47:58;35.25;43.40
63202;DHT22;49296;48.188;11.566;2023-06-22T13:50:26;35.47;42.96
63202;DHT22;49296;48.188;11.566;2023-06-22T13:52:54;35.55;43.74
63202;DHT22;49296;48.188;11.566;2023-06-22T13:55:22;35.46;42.85
63202;DHT22;49296;48.188;11.566;2023-06-22T13:57:49;35.77;42.73
63202;DHT22;49296;48.188;11.566;2023-06-22T14:00:17;35.86;42.38
63202;DHT22;49296;48.188;11.566;2023-06-22T14:02:44;36.20;41.84
63202;DHT22;49296;48.188;11.566;2023-06-22T14:05:11;36.25;40.97
63202;DHT22;49296;48.188;11.566;2023-06-22T14:07:39;36.46;40.96
63202;DHT22;49296;48.188;11.566;2023-06-22T14:10:06;36.72;40.64
63202;DHT22;49296;48.188;11.566;2023-06-22T14:12:33;36.82;40.58
63202;DHT22;49296;48.188;11.566;2023-06-22T14:15:00;36.99;40.11
63202;DHT22;49296;48.188;11.566;2023-06-22T14:17:27;37.25;40.08
63202;DHT22;49296;48.188;11.566;2023-06-22T14:19:54;37.18;39.66
63202;DHT22;49296;48.188;11.566;2023-06-22T14:22:21;37.42;39.12
63202;DHT22;49296;48.188;11.566;2023-06-22T14:24:50;37.70;38.31
63202;DHT22;49296;48.188;11.566;2023-06-22T14:27:17;38.05;38.20
63202;DHT22;49296;48.188;11.566;2023-06-22T14:29:43;38.40;37.70
63202;DHT22;49296;48.188;11.566;2023-06-22T14:32:10;38.66;37.38
63202;DHT22;49296;48.188;11.566;2023-06-22T14:34:37;38.75;36.93
63202;DHT22;49296;48.188;11.566;2023-06-22T14:37:05;38.71;36.68
63202;DHT22;49296;48.188;11.566;2023-06-22T14:39:32;39.05;36.55
63202;DHT22;49296;48.188;11.566;2023-06-22T14:42:01;39.18;35.89
63202;DHT22;49296;48.188;11.566;2023-06-22T14:44:28;38.81;35.35
63202;DHT22;49296;48.188;11.566;2023-06-22T14:46:55;39.11;35.04
63202;DHT22;49296;48.188;11.566;2023-06-22T14:49:22;39.21;35.33
63202;DHT22;49296;48.188;11.566;2023-06-22T14:51:49;39.43;35.56
63202;DHT22;49296;48.188;11.566;2023-06-22T14:54:16;39.39;35.29
63202;DHT22;49296;48.188;11.566;2023-06-22T14:56:43;39.46;34.64
63202;DHT22;49296;48.188;11.566;2023-06-22T14:59:12;39.32;34.61
63202;DHT22;49296;48.188;11.566;2023-06-22T15:01:38;39.68;34.18
63202;DHT22;49296;48.188;11.566;2023-06-22T15:04:05;39.59;32.58
63202;DHT22;49296;48.188;11.566;2023-06-22T15:06:32;39.76;33.58
63202;DHT22;49296;48.188;11.566;2023-06-22T15:08:59;39.23;32.89
63202;DHT22;49296;48.188;11.566;2023-06-22T15:11:26;39.77;33.49
63202;DHT22;49296;48.188;11.566;2023-06-22T15:13:53;39.88;32.47
63202;DHT22;49296;48.188;11.566;2023-06-22T15:16:21;39.73;31.94